Time;durP1;ratioP1;P1;durP2;ratioP2;P2;SDS_P1;SDS_P2;PMS_P1;PMS_P2;Temp;Humidity;BMP_temperature;BMP_pressure;BME280_temperature;BME280_humidity;BME280_pressure;Samples;Min_cycle;Max_cycle;Signal;HPM_P1;HPM_P2
2021/08/15 00:01:23;;;;;;;7.50;5.30;;;21.80;99.90;;;;;;5035742;28;20459;-47
2021/08/15 00:03:50;;;;;;;8.60;5.20;;;21.80;99.90;;;;;;5035816;28;20453;-51
2021/08/15 00:06:17;;;;;;;8.07;4.93;;;21.60;99.90;;;;;;5035840;28;20444;-50
2021/08/15 00:08:46;;;;;;;9.80;4.97;;;21.60;99.90;;;;;;5035647;28;20460;-45
2021/08/15 00:11:13;;;;;;;9.47;4.93;;;21.50;99.90;;;;;;5035587;28;20514;-46
2021/08/15 00:13:40;;;;;;;6.87;5.00;;;21.40;99.90;;;;;;5035594;28;20787;-51
2021/08/15 00:16:07;;;;;;;7.87;4.47;;;21.30;99.90;;;;;;5035410;28;20492;-51
2021/08/15 00:18:35;;;;;;;10.70;4.97;;;21.30;99.90;;;;;;5055179;28;20451;-48
2021/08/15 00:21:01;;;;;;;10.33;4.40;;;21.20;99.90;;;;;;5055177;28;20440;-46
2021/08/15 00:23:28;;;;;;;10.97;3.70;;;21.10;99.90;;;;;;5055510;28;20443;-46
2021/08/15 00:25:56;;;;;;;8.83;4.40;;;21.00;99.90;;;;;;5054709;28;20508;-49
2021/08/15 00:28:23;;;;;;;6.57;4.27;;;20.90;99.90;;;;;;5055837;28;20744;-46
2021/08/15 00:30:50;;;;;;;9.73;5.00;;;20.90;99.90;;;;;;5055392;28;20513;-49
2021/08/15 00:33:16;;;;;;;12.30;5.13;;;20.80;99.90;;;;;;5055475;28;20808;-44
2021/08/15 00:35:44;;;;;;;9.60;4.50;;;20.70;99.90;;;;;;5055185;28;20613;-51
2021/08/15 00:38:10;;;;;;;6.70;4.00;;;20.70;99.90;;;;;;5054963;28;20462;-50
2021/08/15 00:40:37;;;;;;;7.57;4.43;;;20.60;99.90;;;;;;5055305;28;20501;-48
2021/08/15 00:43:06;;;;;;;6.53;3.60;;;20.60;99.90;;;;;;5055137;28;20463;-48
2021/08/15 00:45:33;;;;;;;6.83;4.40;;;20.50;99.90;;;;;;5055404;28;20443;-46
2021/08/15 00:48:08;;;;;;;11.60;4.40;;;20.50;99.90;;;;;;5055281;28;20513;-45
2021/08/15 00:50:35;;;;;;;8.43;4.13;;;20.40;99.90;;;;;;5055037;28;20525;-51
2021/08/15 00:53:02;;;;;;;8.60;4.37;;;20.40;99.90;;;;;;5055039;28;20835;-51
2021/08/15 00:55:28;;;;;;;12.90;4.83;;;20.30;99.90;;;;;;5054799;28;20487;-49
2021/08/15 00:57:56;;;;;;;8.40;4.10;;;20.30;99.90;;;;;;5055153;28;20450;-44
2021/08/15 01:00:24;;;;;;;8.07;3.77;;;20.20;99.90;;;;;;5055164;28;20466;-50
2021/08/15 01:02:52;;;;;;;7.50;4.10;;;20.20;99.90;;;;;;5054871;28;20454;-48
2021/08/15 01:05:19;;;;;;;6.50;4.17;;;20.20;99.90;;;;;;5055123;28;20506;-49
2021/08/15 01:07:46;;;;;;;7.30;4.77;;;20.20;99.90;;;;;;5054557;28;20459;-48
2021/08/15 01:10:15;;;;;;;5.93;4.87;;;20.10;99.90;;;;;;5054921;28;20732;-51
2021/08/15 01:12:42;;;;;;;9.77;3.87;;;20.10;99.90;;;;;;5054967;28;20918;-50
2021/08/15 01:15:10;;;;;;;7.00;4.33;;;20.10;99.90;;;;;;5054816;28;20544;-49
2021/08/15 01:17:38;;;;;;;6.93;3.80;;;20.00;99.90;;;;;;5042251;28;20475;-47
2021/08/15 01:20:06;;;;;;;8.70;3.80;;;20.00;99.90;;;;;;5034909;28;20456;-47
2021/08/15 01:22:36;;;;;;;8.57;4.10;;;20.00;99.90;;;;;;5034864;28;20885;-48
2021/08/15 01:25:05;;;;;;;18.33;5.07;;;19.90;99.90;;;;;;5034792;28;20452;-46
2021/08/15 01:27:37;;;;;;;9.13;3.40;;;19.90;99.90;;;;;;5034906;28;20506;-49
2021/08/15 01:30:08;;;;;;;10.73;3.70;;;19.80;99.90;;;;;;5035109;28;20428;-46
2021/08/15 01:32:35;;;;;;;6.37;3.30;;;19.90;99.90;;;;;;5034782;28;20987;-46
2021/08/15 01:35:03;;;;;;;7.90;4.27;;;19.80;99.90;;;;;;5034585;28;20482;-51
2021/08/15 01:37:29;;;;;;;7.37;4.00;;;19.80;99.90;;;;;;5037457;28;20486;-52
2021/08/15 01:39:58;;;;;;;6.47;4.10;;;19.80;99.90;;;;;;5038982;28;20921;-43
2021/08/15 01:42:25;;;;;;;5.33;3.83;;;19.70;99.90;;;;;;5038835;28;20785;-52
2021/08/15 01:44:52;;;;;;;10.77;3.80;;;19.70;99.90;;;;;;5038958;28;20897;-47
2021/08/15 01:47:20;;;;;;;6.77;4.07;;;19.70;99.90;;;;;;5038676;28;20502;-47
2021/08/15 01:49:46;;;;;;;8.30;3.80;;;19.60;99.90;;;;;;5038520;28;20904;-49
2021/08/15 01:52:13;;;;;;;7.97;3.60;;;19.60;99.90;;;;;;5038840;28;20514;-44
2021/08/15 01:54:40;;;;;;;12.03;3.70;;;19.50;99.90;;;;;;5038930;28;20490;-44
2021/08/15 01:57:07;;;;;;;8.03;3.73;;;19.50;99.90;;;;;;5038825;28;20518;-46
2021/08/15 01:59:33;;;;;;;6.30;4.10;;;19.50;99.90;;;;;;5038776;28;20460;-51
2021/08/15 02:02:00;;;;;;;7.30;4.13;;;19.50;99.90;;;;;;5038669;28;20444;-50
2021/08/15 02:04:28;;;;;;;9.10;4.67;;;19.40;99.90;;;;;;5038513;28;20506;-49
2021/08/15 02:06:55;;;;;;;8.23;4.30;;;19.40;99.90;;;;;;5039073;28;20448;-51
2021/08/15 02:09:22;;;;;;;8.73;4.40;;;19.30;99.90;;;;;;5038160;28;20471;-47
2021/08/15 02:11:49;;;;;;;4.03;3.30;;;19.30;99.90;;;;;;5038352;28;20455;-47
2021/08/15 02:14:15;;;;;;;7.83;4.10;;;19.30;99.90;;;;;;5038443;28;20459;-44
2021/08/15 02:16:43;;;;;;;4.73;3.20;;;19.30;99.90;;;;;;5038173;28;20496;-48
2021/08/15 02:19:10;;;;;;;9.33;4.47;;;19.30;99.90;;;;;;5038350;28;20429;-45
2021/08/15 02:21:38;;;;;;;7.60;4.10;;;19.20;99.90;;;;;;5038271;28;20463;-47
2021/08/15 02:24:05;;;;;;;6.27;3.80;;;19.20;99.90;;;;;;5038073;28;20535;-46
2021/08/15 02:26:32;;;;;;;9.03;4.77;;;19.10;99.90;;;;;;5037901;28;20444;-48
2021/08/15 02:28:59;;;;;;;8.07;3.67;;;19.10;99.90;;;;;;5038471;28;20455;-42
2021/08/15 02:31:25;;;;;;;8.87;4.53;;;19.10;99.90;;;;;;5038667;28;20444;-47
2021/08/15 02:33:52;;;;;;;8.47;3.97;;;19.10;99.90;;;;;;5038710;28;20827;-44
2021/08/15 02:36:19;;;;;;;11.73;4.33;;;19.10;99.90;;;;;;5038694;28;20538;-46
2021/08/15 02:38:47;;;;;;;9.03;3.87;;;19.00;99.90;;;;;;5038763;28;20444;-42
2021/08/15 02:41:13;;;;;;;12.00;3.70;;;19.00;99.90;;;;;;5038621;28;21067;-44
2021/08/15 02:43:40;;;;;;;8.90;4.10;;;19.00;99.90;;;;;;5039045;28;20854;-43
2021/08/15 02:46:07;;;;;;;9.27;3.77;;;19.00;99.90;;;;;;5039333;28;20955;-42
2021/08/15 02:48:34;;;;;;;9.17;4.13;;;19.00;99.90;;;;;;5037245;28;20444;-45
2021/08/15 02:51:01;;;;;;;6.40;4.10;;;19.00;99.90;;;;;;5038211;28;20489;-45
2021/08/15 02:53:28;;;;;;;7.43;4.10;;;18.90;99.90;;;;;;5038146;28;20447;-50
2021/08/15 02:55:55;;;;;;;7.00;3.87;;;18.90;99.90;;;;;;5037727;28;20475;-46
2021/08/15 02:58:22;;;;;;;7.00;4.07;;;18.90;99.90;;;;;;5037706;28;20456;-49
2021/08/15 03:00:49;;;;;;;9.60;3.70;;;18.90;99.90;;;;;;5037512;28;20815;-46
2021/08/15 03:03:15;;;;;;;6.53;3.77;;;18.90;99.90;;;;;;5037659;28;20518;-49
2021/08/15 03:05:42;;;;;;;6.80;4.33;;;18.90;99.90;;;;;;5038012;28;20502;-47
2021/08/15 03:08:09;;;;;;;8.23;4.07;;;18.80;99.90;;;;;;5037565;28;21080;-49
2021/08/15 03:10:36;;;;;;;9.80;4.90;;;18.80;99.90;;;;;;5038529;28;20836;-54
2021/08/15 03:13:06;;;;;;;7.57;3.93;;;18.80;99.90;;;;;;5037458;28;20443;-47
2021/08/15 03:15:33;;;;;;;5.70;4.30;;;18.80;99.90;;;;;;5037608;28;20534;-47
2021/08/15 03:17:59;;;;;;;8.57;4.20;;;18.80;99.90;;;;;;5037248;28;20480;-48
2021/08/15 03:20:27;;;;;;;8.30;4.13;;;18.80;99.90;;;;;;5037009;28;20452;-48
2021/08/15 03:22:54;;;;;;;8.10;4.03;;;18.80;99.90;;;;;;5037210;28;21011;-49
2021/08/15 03:25:20;;;;;;;12.53;4.50;;;18.70;99.90;;;;;;5037148;28;20781;-45
2021/08/15 03:27:47;;;;;;;8.93;4.90;;;18.70;99.90;;;;;;5037072;28;20459;-48
2021/08/15 03:30:15;;;;;;;13.43;4.93;;;18.80;99.90;;;;;;5036978;28;20448;-48
2021/08/15 03:32:42;;;;;;;12.90;4.83;;;18.80;99.90;;;;;;5036913;28;20459;-48
2021/08/15 03:35:09;;;;;;;7.30;3.90;;;18.80;99.90;;;;;;5037006;28;20540;-45
2021/08/15 03:37:36;;;;;;;10.43;4.43;;;18.70;99.90;;;;;;5036935;28;20456;-45
2021/08/15 03:40:04;;;;;;;10.87;4.17;;;18.70;99.90;;;;;;5036919;28;20452;-50
2021/08/15 03:42:31;;;;;;;11.03;4.13;;;18.70;99.90;;;;;;5037012;28;20444;-45
2021/08/15 03:44:58;;;;;;;9.87;4.37;;;18.70;99.90;;;;;;5037006;28;20823;-42
2021/08/15 03:47:31;;;;;;;10.47;4.70;;;18.70;99.90;;;;;;5037051;28;20533;-48
2021/08/15 03:49:58;;;;;;;8.63;4.00;;;18.60;99.90;;;;;;5036806;28;20452;-49
2021/08/15 03:52:25;;;;;;;13.60;5.90;;;18.60;99.90;;;;;;5036773;28;20451;-42
2021/08/15 03:54:55;;;;;;;10.20;4.60;;;18.70;99.90;;;;;;5036518;28;20530;-47
2021/08/15 03:57:21;;;;;;;5.03;3.90;;;18.70;99.90;;;;;;5036283;28;20483;-45
2021/08/15 03:59:48;;;;;;;8.37;4.40;;;18.60;99.90;;;;;;5036803;28;20459;-48
2021/08/15 04:02:15;;;;;;;11.77;5.00;;;18.60;99.90;;;;;;5036056;28;20480;-48
2021/08/15 04:04:43;;;;;;;11.93;4.83;;;18.60;99.90;;;;;;5036252;28;20494;-45
2021/08/15 04:07:09;;;;;;;9.30;4.77;;;18.60;99.90;;;;;;5036398;28;20444;-46
2021/08/15 04:09:36;;;;;;;6.53;4.23;;;18.60;99.90;;;;;;5036291;28;20460;-45
2021/08/15 04:12:03;;;;;;;8.50;5.50;;;18.60;99.90;;;;;;5036199;28;20456;-42
2021/08/15 04:14:30;;;;;;;13.40;4.57;;;18.60;99.90;;;;;;5036192;28;20448;-42
2021/08/15 04:16:56;;;;;;;7.10;4.33;;;18.50;99.90;;;;;;5035987;28;20488;-48
2021/08/15 04:19:23;;;;;;;7.00;4.40;;;18.50;99.90;;;;;;5035997;28;20459;-41
2021/08/15 04:21:51;;;;;;;8.60;4.83;;;18.50;99.90;;;;;;5036511;28;20971;-46
2021/08/15 04:24:18;;;;;;;5.63;5.07;;;18.50;99.90;;;;;;5036177;28;20448;-47
2021/08/15 04:26:46;;;;;;;9.83;5.60;;;18.50;99.90;;;;;;5036394;28;20464;-48
2021/08/15 04:29:13;;;;;;;10.07;4.90;;;18.50;99.90;;;;;;5036627;28;20480;-49
2021/08/15 04:31:40;;;;;;;6.07;4.60;;;18.50;99.90;;;;;;5036124;28;20455;-46
2021/08/15 04:34:06;;;;;;;10.70;4.70;;;18.60;99.90;;;;;;5036289;28;20763;-47
2021/08/15 04:36:33;;;;;;;10.40;5.67;;;18.60;99.90;;;;;;5036368;28;20483;-44
2021/08/15 04:39:01;;;;;;;10.57;5.13;;;18.60;99.90;;;;;;5036381;28;20786;-48
2021/08/15 04:41:28;;;;;;;7.43;4.10;;;18.60;99.90;;;;;;5035832;28;20459;-50
2021/08/15 04:43:55;;;;;;;10.27;4.77;;;18.70;99.90;;;;;;5036108;28;20464;-50
2021/08/15 04:46:21;;;;;;;16.13;5.83;;;18.70;99.90;;;;;;5035773;28;20929;-45
2021/08/15 04:48:48;;;;;;;7.77;4.93;;;18.70;99.90;;;;;;5036123;28;20444;-42
2021/08/15 04:51:15;;;;;;;8.17;4.67;;;18.70;99.90;;;;;;5035737;28;20459;-45
2021/08/15 04:53:41;;;;;;;8.73;4.87;;;18.70;99.90;;;;;;5035931;28;20952;-48
2021/08/15 04:56:10;;;;;;;9.97;5.60;;;18.70;99.90;;;;;;5035588;28;20471;-46
2021/08/15 04:58:37;;;;;;;6.60;4.43;;;18.70;99.90;;;;;;5035947;28;20460;-47
2021/08/15 05:01:04;;;;;;;10.00;4.67;;;18.70;99.90;;;;;;5035719;28;20479;-50
2021/08/15 05:03:30;;;;;;;16.43;4.70;;;18.70;99.90;;;;;;5035833;28;20456;-45
2021/08/15 05:05:57;;;;;;;9.33;5.33;;;18.70;99.90;;;;;;5035739;28;20436;-47
2021/08/15 05:08:24;;;;;;;12.90;5.00;;;18.80;99.90;;;;;;5035842;28;20463;-43
2021/08/15 05:10:51;;;;;;;8.30;4.53;;;18.80;99.90;;;;;;5035287;28;20464;-44
2021/08/15 05:13:19;;;;;;;7.93;4.80;;;18.80;99.90;;;;;;5035493;28;20909;-49
2021/08/15 05:15:46;;;;;;;10.40;5.53;;;18.90;99.90;;;;;;5036306;28;20507;-46
2021/08/15 05:18:14;;;;;;;14.90;5.00;;;19.00;99.90;;;;;;5035704;28;20940;-50
2021/08/15 05:20:42;;;;;;;6.80;5.27;;;19.00;99.90;;;;;;5035279;28;20464;-48
2021/08/15 05:23:08;;;;;;;8.07;5.13;;;19.10;99.90;;;;;;5035832;28;20459;-49
2021/08/15 05:25:35;;;;;;;8.20;5.37;;;19.10;99.90;;;;;;5035220;28;20908;-55
2021/08/15 05:28:03;;;;;;;14.60;4.90;;;19.20;99.90;;;;;;5035381;28;20452;-51
2021/08/15 05:30:35;;;;;;;7.57;4.43;;;19.20;99.90;;;;;;5035451;28;20448;-49
2021/08/15 05:33:02;;;;;;;9.73;5.20;;;19.20;99.90;;;;;;5035608;28;20943;-50
2021/08/15 05:35:28;;;;;;;10.37;5.70;;;19.30;99.90;;;;;;5035298;28;20525;-47
2021/08/15 05:37:55;;;;;;;8.27;4.80;;;19.30;99.90;;;;;;5035336;28;20444;-51
2021/08/15 05:40:22;;;;;;;10.50;5.20;;;19.40;99.90;;;;;;5035737;28;20517;-48
2021/08/15 05:42:49;;;;;;;7.93;4.53;;;19.40;99.90;;;;;;5035208;28;20514;-46
2021/08/15 05:45:19;;;;;;;11.60;5.80;;;19.30;99.90;;;;;;5035690;28;20507;-47
2021/08/15 05:47:49;;;;;;;8.77;4.70;;;19.40;99.90;;;;;;5035442;28;20444;-48
2021/08/15 05:50:16;;;;;;;9.93;4.50;;;19.40;99.90;;;;;;5035752;28;20488;-48
2021/08/15 05:52:43;;;;;;;17.50;5.20;;;19.40;99.90;;;;;;5035415;28;20531;-45
2021/08/15 05:55:11;;;;;;;9.37;5.40;;;19.40;99.90;;;;;;5035809;28;20954;-46
2021/08/15 05:57:38;;;;;;;7.73;5.33;;;19.50;99.90;;;;;;5036264;28;20476;-45
2021/08/15 06:00:07;;;;;;;7.37;4.53;;;19.50;99.90;;;;;;5036084;28;20455;-46
2021/08/15 06:02:34;;;;;;;10.23;4.73;;;19.60;99.90;;;;;;5035368;28;20483;-51
2021/08/15 06:05:02;;;;;;;9.23;4.73;;;19.70;99.90;;;;;;5034716;28;20486;-43
2021/08/15 06:07:28;;;;;;;7.73;4.93;;;19.80;99.90;;;;;;5035270;28;20821;-46
2021/08/15 06:09:55;;;;;;;9.33;5.23;;;19.80;99.90;;;;;;5035279;28;20792;-49
2021/08/15 06:12:22;;;;;;;10.63;4.70;;;19.90;99.90;;;;;;5035212;28;20863;-48
2021/08/15 06:14:48;;;;;;;12.97;5.00;;;20.00;99.90;;;;;;5034947;28;20835;-42
2021/08/15 06:17:15;;;;;;;14.67;4.60;;;20.00;99.90;;;;;;5034593;28;20965;-52
2021/08/15 06:19:42;;;;;;;9.73;3.93;;;20.10;99.90;;;;;;5034881;28;20460;-46
2021/08/15 06:22:10;;;;;;;13.40;3.90;;;20.10;99.90;;;;;;5017217;28;20463;-49
2021/08/15 06:24:37;;;;;;;6.60;4.20;;;20.10;99.90;;;;;;5036865;28;20506;-45
2021/08/15 06:27:05;;;;;;;6.87;3.37;;;20.20;99.90;;;;;;5038384;28;20502;-51
2021/08/15 06:29:32;;;;;;;7.33;3.97;;;20.30;99.90;;;;;;5038347;28;20448;-47
2021/08/15 06:31:59;;;;;;;9.37;4.10;;;20.30;99.90;;;;;;5038031;28;20455;-49
2021/08/15 06:34:26;;;;;;;10.93;4.43;;;20.30;99.90;;;;;;5038343;28;21002;-47
2021/08/15 06:36:54;;;;;;;13.40;4.60;;;20.40;99.90;;;;;;5038851;28;20558;-47
2021/08/15 06:39:23;;;;;;;6.53;4.17;;;20.40;99.90;;;;;;5038977;28;20448;-44
2021/08/15 06:41:49;;;;;;;7.60;3.90;;;20.40;99.90;;;;;;5038461;28;20526;-46
2021/08/15 06:44:17;;;;;;;11.43;3.70;;;20.50;99.90;;;;;;5038201;28;20445;-50
2021/08/15 06:46:44;;;;;;;6.07;3.80;;;20.50;99.90;;;;;;5037913;28;20456;-46
2021/08/15 06:49:11;;;;;;;10.43;4.17;;;20.70;99.90;;;;;;5037831;28;20547;-46
2021/08/15 06:51:38;;;;;;;8.20;4.30;;;20.80;99.90;;;;;;5037680;28;20444;-48
2021/08/15 06:54:05;;;;;;;10.67;4.67;;;20.90;99.90;;;;;;5037982;28;20452;-48
2021/08/15 06:56:33;;;;;;;10.83;4.43;;;21.00;99.90;;;;;;5037788;28;20968;-45
2021/08/15 06:59:00;;;;;;;8.27;4.87;;;21.10;99.90;;;;;;5038135;28;20459;-48
2021/08/15 07:01:27;;;;;;;8.83;4.87;;;21.30;99.90;;;;;;5037502;28;20510;-49
2021/08/15 07:03:53;;;;;;;9.57;4.97;;;21.40;99.90;;;;;;5038117;28;20815;-48
2021/08/15 07:06:20;;;;;;;6.83;4.47;;;21.50;99.90;;;;;;5037524;28;20456;-48
2021/08/15 07:08:47;;;;;;;8.30;4.47;;;21.60;99.90;;;;;;5037513;28;20457;-46
2021/08/15 07:11:13;;;;;;;11.57;4.67;;;21.70;99.90;;;;;;5037957;28;20452;-45
2021/08/15 07:13:42;;;;;;;19.27;5.30;;;21.80;99.90;;;;;;5037242;28;20788;-50
2021/08/15 07:16:09;;;;;;;11.30;5.00;;;21.80;99.90;;;;;;5037431;28;20811;-44
2021/08/15 07:18:35;;;;;;;8.73;4.80;;;21.80;99.90;;;;;;5037295;28;20463;-49
2021/08/15 07:21:02;;;;;;;9.20;4.20;;;21.90;99.90;;;;;;5037424;28;20978;-49
2021/08/15 07:23:29;;;;;;;7.77;4.10;;;21.90;99.90;;;;;;5037260;28;20448;-49
2021/08/15 07:25:56;;;;;;;8.70;4.37;;;22.00;99.90;;;;;;5036917;28;20487;-44
2021/08/15 07:28:23;;;;;;;8.40;4.20;;;22.00;99.90;;;;;;5037560;28;20950;-46
2021/08/15 07:30:51;;;;;;;8.63;4.80;;;22.10;99.90;;;;;;5037182;28;20474;-48
2021/08/15 07:33:20;;;;;;;12.27;4.37;;;22.10;99.90;;;;;;5036592;28;20988;-47
2021/08/15 07:35:47;;;;;;;17.03;5.67;;;22.20;99.90;;;;;;5036266;28;20459;-48
2021/08/15 07:38:14;;;;;;;7.77;4.53;;;22.30;99.90;;;;;;5036667;28;20471;-48
2021/08/15 07:40:41;;;;;;;6.30;4.47;;;22.40;99.90;;;;;;5036651;28;20444;-51
2021/08/15 07:43:07;;;;;;;7.30;4.40;;;22.50;99.90;;;;;;5036322;28;20530;-48
2021/08/15 07:45:34;;;;;;;9.07;3.80;;;22.50;99.90;;;;;;5036734;28;20444;-48
2021/08/15 07:48:03;;;;;;;7.23;4.80;;;22.60;99.90;;;;;;5036577;28;20470;-46
2021/08/15 07:50:35;;;;;;;7.40;4.03;;;22.70;99.90;;;;;;5036841;28;20448;-50
2021/08/15 07:53:15;;;;;;;9.87;4.93;;;22.70;99.90;;;;;;5036429;28;20440;-51
2021/08/15 07:55:41;;;;;;;7.83;4.07;;;23.10;99.90;;;;;;5035839;28;20444;-43
2021/08/15 07:58:08;;;;;;;13.20;4.80;;;23.90;99.90;;;;;;5036004;28;20475;-48
2021/08/15 08:00:36;;;;;;;11.07;5.20;;;24.90;99.90;;;;;;5035830;28;20530;-46
2021/08/15 08:03:04;;;;;;;5.67;3.97;;;25.80;99.90;;;;;;5035620;28;20445;-46
2021/08/15 08:05:31;;;;;;;8.93;4.97;;;26.60;99.90;;;;;;5035651;28;20444;-48
2021/08/15 08:07:57;;;;;;;9.10;4.30;;;27.60;99.80;;;;;;5035267;28;20439;-49
2021/08/15 08:10:24;;;;;;;13.63;5.83;;;28.50;96.00;;;;;;5035716;28;20480;-50
2021/08/15 08:12:51;;;;;;;8.10;4.23;;;29.30;92.50;;;;;;5035213;28;20521;-43
2021/08/15 08:15:18;;;;;;;6.53;3.67;;;30.00;87.30;;;;;;5035283;28;20436;-48
2021/08/15 08:17:44;;;;;;;9.27;5.43;;;30.40;81.40;;;;;;5035022;28;20496;-49
2021/08/15 08:20:15;;;;;;;10.80;4.90;;;30.50;77.20;;;;;;5035053;28;20456;-52
2021/08/15 08:22:42;;;;;;;9.17;4.60;;;30.80;73.60;;;;;;5035289;28;20440;-49
2021/08/15 08:25:09;;;;;;;6.37;3.83;;;31.10;72.10;;;;;;5035093;28;20456;-48
2021/08/15 08:27:36;;;;;;;8.47;3.80;;;31.60;67.80;;;;;;5035276;28;20502;-44
2021/08/15 08:30:03;;;;;;;6.07;3.37;;;31.60;66.80;;;;;;5035210;28;20785;-47
2021/08/15 08:32:31;;;;;;;5.20;3.90;;;31.80;65.80;;;;;;5034904;28;20464;-48
2021/08/15 08:34:58;;;;;;;9.43;6.47;;;31.90;63.90;;;;;;5034710;28;20901;-46
2021/08/15 08:37:26;;;;;;;5.57;4.10;;;32.10;63.10;;;;;;5034723;28;20537;-45
2021/08/15 08:39:56;;;;;;;7.40;4.40;;;32.50;61.60;;;;;;5034688;28;20506;-48
2021/08/15 08:42:23;;;;;;;6.80;4.50;;;33.00;59.50;;;;;;5034782;28;20471;-43
2021/08/15 08:44:50;;;;;;;6.90;4.37;;;33.40;58.10;;;;;;5034919;28;20982;-46
2021/08/15 08:47:16;;;;;;;14.70;8.40;;;33.60;56.80;;;;;;5033788;28;20444;-45
2021/08/15 08:49:43;;;;;;;6.20;5.00;;;33.90;55.80;;;;;;5034518;28;20465;-50
2021/08/15 08:52:13;;;;;;;5.60;4.90;;;34.20;55.00;;;;;;5034697;28;20444;-46
2021/08/15 08:54:41;;;;;;;9.80;5.20;;;34.20;54.30;;;;;;5034668;28;20529;-46
2021/08/15 08:57:08;;;;;;;13.23;6.60;;;34.60;53.80;;;;;;5034511;28;20475;-46
2021/08/15 08:59:38;;;;;;;12.63;9.10;;;34.90;52.30;;;;;;5035131;28;20535;-46
2021/08/15 09:02:05;;;;;;;13.47;8.27;;;35.10;51.50;;;;;;5034303;28;20448;-51
2021/08/15 09:04:32;;;;;;;5.73;4.63;;;34.50;51.80;;;;;;5034669;28;20454;-43
2021/08/15 09:07:08;;;;;;;8.23;5.30;;;33.90;51.80;;;;;;5035005;28;20514;-44
2021/08/15 09:09:37;;;;;;;8.40;5.50;;;33.70;52.50;;;;;;5035491;28;20448;-50
2021/08/15 09:12:07;;;;;;;8.93;5.40;;;34.10;52.00;;;;;;5036255;28;20451;-50
2021/08/15 09:14:34;;;;;;;9.60;6.40;;;34.50;51.50;;;;;;5035302;28;20478;-49
2021/08/15 09:17:03;;;;;;;6.50;4.07;;;34.80;50.90;;;;;;5034237;28;20835;-42
2021/08/15 09:19:33;;;;;;;6.37;4.90;;;34.80;50.30;;;;;;5034133;28;20448;-50
2021/08/15 09:22:12;;;;;;;5.57;4.40;;;34.80;50.20;;;;;;5034462;28;20536;-51
2021/08/15 09:24:45;;;;;;;6.17;4.13;;;34.60;50.00;;;;;;5034433;28;20742;-50
2021/08/15 09:27:19;;;;;;;13.50;5.43;;;34.50;50.00;;;;;;5034157;28;20539;-51
2021/08/15 09:30:09;;;;;;;8.47;4.40;;;34.70;50.10;;;;;;5033929;28;20432;-48
2021/08/15 09:32:38;;;;;;;6.20;3.47;;;34.80;49.50;;;;;;5034362;28;20442;-46
2021/08/15 09:35:05;;;;;;;11.50;5.60;;;34.80;48.80;;;;;;5034108;28;20452;-51
2021/08/15 09:37:34;;;;;;;6.20;4.37;;;35.10;49.00;;;;;;5034194;28;20811;-50
2021/08/15 09:40:01;;;;;;;5.30;3.80;;;34.80;48.60;;;;;;5033952;28;20459;-47
2021/08/15 09:42:41;;;;;;;6.47;4.10;;;34.20;49.90;;;;;;5034161;28;20448;-49
2021/08/15 09:45:12;;;;;;;4.70;3.80;;;33.90;49.70;;;;;;5033934;28;20452;-50
2021/08/15 09:47:39;;;;;;;6.83;4.00;;;33.60;49.40;;;;;;5034381;28;20495;-49
2021/08/15 09:50:18;;;;;;;8.10;4.87;;;33.30;50.30;;;;;;5034265;28;20439;-49
2021/08/15 09:52:45;;;;;;;6.27;4.93;;;32.80;50.70;;;;;;5033917;28;20521;-52
2021/08/15 09:55:13;;;;;;;7.03;3.70;;;32.30;52.00;;;;;;5034069;28;20760;-48
2021/08/15 09:57:42;;;;;;;4.83;3.93;;;31.80;51.90;;;;;;5035117;28;20483;-48
2021/08/15 10:00:33;;;;;;;6.70;3.70;;;31.20;52.50;;;;;;5037748;28;20452;-46
2021/08/15 10:03:03;;;;;;;7.90;6.03;;;30.90;52.70;;;;;;5037427;28;20966;-47
2021/08/15 10:05:29;;;;;;;5.83;3.10;;;30.80;53.30;;;;;;5037500;28;20458;-46
2021/08/15 10:07:56;;;;;;;8.83;3.87;;;31.10;52.40;;;;;;5037830;28;20751;-48
2021/08/15 10:10:23;;;;;;;5.70;4.00;;;31.60;50.90;;;;;;5037751;28;20464;-46
2021/08/15 10:12:51;;;;;;;37.40;31.60;;;32.20;50.30;;;;;;5037683;28;20467;-46
2021/08/15 10:15:18;;;;;;;17.13;9.53;;;32.50;49.90;;;;;;5038053;28;20452;-48
2021/08/15 10:17:47;;;;;;;6.67;5.07;;;32.90;49.40;;;;;;5037340;28;20573;-44
2021/08/15 10:20:20;;;;;;;7.30;4.70;;;33.40;49.00;;;;;;5037546;28;20443;-47
2021/08/15 10:22:49;;;;;;;10.33;8.10;;;33.30;48.20;;;;;;5037243;28;20486;-47
2021/08/15 10:25:32;;;;;;;6.93;4.17;;;33.20;48.20;;;;;;5037094;28;20909;-50
2021/08/15 10:28:01;;;;;;;5.83;4.30;;;33.20;48.60;;;;;;5037438;28;20444;-51
2021/08/15 10:30:47;;;;;;;5.57;3.80;;;32.90;48.80;;;;;;5036936;28;20448;-49
2021/08/15 10:33:18;;;;;;;7.47;4.30;;;32.70;49.40;;;;;;5036940;28;20905;-51
2021/08/15 10:36:05;;;;;;;7.17;4.97;;;32.60;49.80;;;;;;5037219;28;20466;-50
2021/08/15 10:38:33;;;;;;;10.10;5.60;;;32.10;51.00;;;;;;5037065;28;20475;-50
2021/08/15 10:41:00;;;;;;;7.87;5.23;;;32.20;51.40;;;;;;5037145;28;20444;-50
2021/08/15 10:44:07;;;;;;;7.87;4.93;;;32.40;51.00;;;;;;5036854;28;20483;-48
2021/08/15 10:46:35;;;;;;;9.03;5.27;;;32.60;50.90;;;;;;5036627;28;20478;-51
2021/08/15 10:49:05;;;;;;;6.83;4.33;;;32.30;50.70;;;;;;5036619;28;20913;-46
2021/08/15 10:51:39;;;;;;;10.27;5.10;;;31.50;51.40;;;;;;5037035;28;20440;-49
2021/08/15 10:55:05;;;;;;;8.43;5.40;;;30.40;53.60;;;;;;5036642;28;20455;-49
2021/08/15 10:57:39;;;;;;;10.07;5.47;;;29.80;54.80;;;;;;5036741;28;20515;-49
2021/08/15 11:00:48;;;;;;;6.40;5.10;;;29.50;55.90;;;;;;5036830;28;20424;-45
2021/08/15 11:03:33;;;;;;;6.30;4.30;;;29.50;55.90;;;;;;5036363;28;20454;-45
2021/08/15 11:06:27;;;;;;;7.67;5.87;;;29.30;56.70;;;;;;5036521;28;20452;-44
2021/08/15 11:08:55;;;;;;;10.90;7.17;;;29.20;57.20;;;;;;5035560;28;20827;-49
2021/08/15 11:11:30;;;;;;;6.83;4.90;;;28.80;57.30;;;;;;5037115;28;20460;-44
2021/08/15 11:14:31;;;;;;;9.73;5.87;;;28.70;57.90;;;;;;5036512;28;20431;-49
2021/08/15 11:17:15;;;;;;;10.27;5.40;;;28.40;58.30;;;;;;5036105;28;20486;-49
2021/08/15 11:19:52;;;;;;;9.20;5.90;;;27.90;59.50;;;;;;5036157;28;20460;-46
2021/08/15 11:22:26;;;;;;;6.93;5.27;;;27.80;60.60;;;;;;5036063;28;20452;-51
2021/08/15 11:25:02;;;;;;;9.27;4.97;;;27.70;61.00;;;;;;5036374;28;20446;-44
2021/08/15 11:27:36;;;;;;;6.63;4.63;;;27.60;61.60;;;;;;5036055;28;20546;-43
2021/08/15 11:30:18;;;;;;;9.53;6.17;;;27.60;62.70;;;;;;5036208;28;20808;-44
2021/08/15 11:33:07;;;;;;;7.63;5.50;;;27.90;62.70;;;;;;5035915;28;20452;-48
2021/08/15 11:35:43;;;;;;;9.33;5.30;;;28.20;62.00;;;;;;5035802;28;20561;-44
2021/08/15 11:38:10;;;;;;;6.93;4.53;;;28.50;60.80;;;;;;5036030;28;20463;-45
2021/08/15 11:40:49;;;;;;;10.87;5.60;;;28.60;59.70;;;;;;5035797;28;20506;-46
2021/08/15 11:43:29;;;;;;;8.87;6.23;;;28.60;60.10;;;;;;5035648;28;20498;-47
2021/08/15 11:45:57;;;;;;;8.50;5.80;;;28.60;60.60;;;;;;5035692;28;20838;-49
2021/08/15 11:48:25;;;;;;;7.23;5.57;;;28.70;60.40;;;;;;5035770;28;20436;-53
2021/08/15 11:50:55;;;;;;;5.87;4.47;;;28.80;60.60;;;;;;5035925;28;20521;-49
2021/08/15 11:53:25;;;;;;;8.03;5.80;;;28.70;60.20;;;;;;5035659;28;20456;-51
2021/08/15 11:55:53;;;;;;;7.23;4.70;;;28.60;61.10;;;;;;5035863;28;20436;-48
2021/08/15 11:58:21;;;;;;;6.67;5.07;;;28.50;60.00;;;;;;5035651;28;20479;-48
2021/08/15 12:00:48;;;;;;;8.33;5.87;;;28.40;60.20;;;;;;5035484;28;20440;-49
2021/08/15 12:03:17;;;;;;;8.43;5.80;;;28.20;60.90;;;;;;5035499;28;20460;-46
2021/08/15 12:05:45;;;;;;;10.53;5.67;;;28.10;62.00;;;;;;5035219;28;20448;-50
2021/08/15 12:08:13;;;;;;;8.27;5.90;;;28.10;62.70;;;;;;5035491;28;20447;-52
2021/08/15 12:10:43;;;;;;;10.60;6.50;;;27.90;62.60;;;;;;5035442;28;20465;-52
2021/08/15 12:13:30;;;;;;;9.60;6.07;;;27.70;63.00;;;;;;5035221;28;20452;-49
2021/08/15 12:16:12;;;;;;;12.77;6.93;;;27.50;63.80;;;;;;5035201;28;20476;-46
2021/08/15 12:18:41;;;;;;;7.80;5.60;;;27.40;64.50;;;;;;5034972;28;20545;-48
2021/08/15 12:21:20;;;;;;;9.03;6.87;;;27.40;65.10;;;;;;5035232;28;20452;-48
2021/08/15 12:24:08;;;;;;;12.03;8.10;;;27.70;64.50;;;;;;5034949;28;20482;-48
2021/08/15 12:26:37;;;;;;;10.20;6.03;;;27.80;64.60;;;;;;5034996;28;20467;-51
2021/08/15 12:29:09;;;;;;;7.00;5.40;;;27.80;64.70;;;;;;5035080;28;20498;-48
2021/08/15 12:31:37;;;;;;;6.97;5.47;;;27.80;65.10;;;;;;5034752;28;20440;-49
2021/08/15 12:34:06;;;;;;;8.20;6.03;;;27.70;64.90;;;;;;5035046;28;20464;-49
2021/08/15 12:36:45;;;;;;;6.00;4.90;;;27.50;65.30;;;;;;5035248;28;20525;-50
2021/08/15 12:39:12;;;;;;;8.73;5.50;;;27.50;65.60;;;;;;5034721;28;20491;-49
2021/08/15 12:41:50;;;;;;;7.87;5.70;;;27.50;65.60;;;;;;5034932;28;20767;-48
2021/08/15 12:44:20;;;;;;;7.00;5.40;;;27.50;66.30;;;;;;5034953;28;20459;-46
2021/08/15 12:47:03;;;;;;;7.50;6.33;;;27.40;65.50;;;;;;5034715;28;20452;-43
2021/08/15 12:49:35;;;;;;;6.50;4.97;;;27.50;65.20;;;;;;5034472;28;20452;-43
2021/08/15 12:52:19;;;;;;;8.00;5.70;;;27.40;64.70;;;;;;5034470;28;20931;-49
2021/08/15 12:55:19;;;;;;;7.93;6.13;;;27.30;65.20;;;;;;5034712;28;20448;-45